sensor_id;sensor_type;location;lat;lon;timestamp;temperature;humidity
22635;DHT22;11484;50.858;4.384;2023-04-24T00:01:48;11.50;99.90
22635;DHT22;11484;50.858;4.384;2023-04-24T00:04:14;11.50;99.90
22635;DHT22;11484;50.858;4.384;2023-04-24T00:06:42;11.50;99.90
22635;DHT22;11484;50.858;4.384;2023-04-24T00:09:09;11.50;99.90
22635;DHT22;11484;50.858;4.384;2023-04-24T00:11:36;11.50;99.90
22635;DHT22;11484;50.858;4.384;2023-04-24T00:14:02;11.40;99.90
22635;DHT22;11484;50.858;4.384;2023-04-24T00:16:27;11.50;99.90
22635;DHT22;11484;50.858;4.384;2023-04-24T00:18:54;11.50;99.90
22635;DHT22;11484;50.858;4.384;2023-04-24T00:21:19;11.50;99.90
22635;DHT22;11484;50.858;4.384;2023-04-24T00:23:45;11.40;99.90
22635;DHT22;11484;50.858;4.384;2023-04-24T00:26:11;11.30;99.90
22635;DHT22;11484;50.858;4.384;2023-04-24T00:28:37;11.40;99.90
22635;DHT22;11484;50.858;4.384;2023-04-24T00:31:03;11.30;99.90
22635;DHT22;11484;50.858;4.384;2023-04-24T00:33:28;11.30;99.90
22635;DHT22;11484;50.858;4.384;2023-04-24T00:35:54;11.20;99.90
22635;DHT22;11484;50.858;4.384;2023-04-24T00:38:20;11.30;99.90
22635;DHT22;11484;50.858;4.384;2023-04-24T00:40:47;11.30;99.90
22635;DHT22;11484;50.858;4.384;2023-04-24T00:43:13;11.30;99.90
22635;DHT22;11484;50.858;4.384;2023-04-24T00:45:39;11.30;99.90
22635;DHT22;11484;50.858;4.384;2023-04-24T00:48:05;11.30;99.90
22635;DHT22;11484;50.858;4.384;2023-04-24T00:50:32;11.30;99.90
22635;DHT22;11484;50.858;4.384;2023-04-24T00:52:57;11.30;99.90
22635;DHT22;11484;50.858;4.384;2023-04-24T00:55:24;11.40;99.90
22635;DHT22;11484;50.858;4.384;2023-04-24T00:57:50;11.40;99.90
22635;DHT22;11484;50.858;4.384;2023-04-24T01:00:18;11.40;99.90
22635;DHT22;11484;50.858;4.384;2023-04-24T01:02:44;11.30;99.90
22635;DHT22;11484;50.858;4.384;2023-04-24T01:05:12;11.30;99.90
22635;DHT22;11484;50.858;4.384;2023-04-24T01:07:39;11.20;99.90
22635;DHT22;11484;50.858;4.384;2023-04-24T01:10:07;11.10;99.90
22635;DHT22;11484;50.858;4.384;2023-04-24T01:12:33;11.20;99.90
22635;DHT22;11484;50.858;4.384;2023-04-24T01:14:59;11.10;99.90
22635;DHT22;11484;50.858;4.384;2023-04-24T01:17:25;11.00;99.90
22635;DHT22;11484;50.858;4.384;2023-04-24T01:19:50;10.80;99.90
22635;DHT22;11484;50.858;4.384;2023-04-24T01:22:19;10.60;99.90
22635;DHT22;11484;50.858;4.384;2023-04-24T01:24:46;10.50;99.90
22635;DHT22;11484;50.858;4.384;2023-04-24T01:27:12;10.50;99.90
22635;DHT22;11484;50.858;4.384;2023-04-24T01:29:38;10.60;99.90
22635;DHT22;11484;50.858;4.384;2023-04-24T01:32:05;10.60;99.90
22635;DHT22;11484;50.858;4.384;2023-04-24T01:34:30;10.70;99.90
22635;DHT22;11484;50.858;4.384;2023-04-24T01:36:56;10.60;99.90
22635;DHT22;11484;50.858;4.384;2023-04-24T01:39:22;10.50;99.90
22635;DHT22;11484;50.858;4.384;2023-04-24T01:41:54;10.60;99.90
22635;DHT22;11484;50.858;4.384;2023-04-24T01:44:20;10.70;99.90
22635;DHT22;11484;50.858;4.384;2023-04-24T01:46:46;10.70;99.90
22635;DHT22;11484;50.858;4.384;2023-04-24T01:49:11;10.90;99.90
22635;DHT22;11484;50.858;4.384;2023-04-24T01:51:38;10.90;99.90
22635;DHT22;11484;50.858;4.384;2023-04-24T01:54:03;10.80;99.90
22635;DHT22;11484;50.858;4.384;2023-04-24T01:56:33;10.80;99.90
22635;DHT22;11484;50.858;4.384;2023-04-24T01:59:00;10.90;99.90
22635;DHT22;11484;50.858;4.384;2023-04-24T02:01:35;10.90;99.90
22635;DHT22;11484;50.858;4.384;2023-04-24T02:04:04;10.90;99.90
22635;DHT22;11484;50.858;4.384;2023-04-24T02:06:30;10.90;99.90
22635;DHT22;11484;50.858;4.384;2023-04-24T02:08:58;10.90;99.90
22635;DHT22;11484;50.858;4.384;2023-04-24T02:11:24;10.90;99.90
22635;DHT22;11484;50.858;4.384;2023-04-24T02:13:50;11.00;99.90
22635;DHT22;11484;50.858;4.384;2023-04-24T02:16:16;10.90;99.90
22635;DHT22;11484;50.858;4.384;2023-04-24T02:18:42;10.80;99.90
22635;DHT22;11484;50.858;4.384;2023-04-24T02:21:08;10.80;99.90
22635;DHT22;11484;50.858;4.384;2023-04-24T02:23:34;10.70;99.90
22635;DHT22;11484;50.858;4.384;2023-04-24T02:26:00;10.80;99.90
22635;DHT22;11484;50.858;4.384;2023-04-24T02:28:26;10.70;99.90
22635;DHT22;11484;50.858;4.384;2023-04-24T02:30:51;10.70;99.90
22635;DHT22;11484;50.858;4.384;2023-04-24T02:33:17;10.70;99.90
22635;DHT22;11484;50.858;4.384;2023-04-24T02:35:43;10.70;99.90
22635;DHT22;11484;50.858;4.384;2023-04-24T02:38:09;10.70;99.90
22635;DHT22;11484;50.858;4.384;2023-04-24T02:40:35;10.60;99.90
22635;DHT22;11484;50.858;4.384;2023-04-24T02:43:01;10.70;99.90
22635;DHT22;11484;50.858;4.384;2023-04-24T02:45:26;10.70;99.90
22635;DHT22;11484;50.858;4.384;2023-04-24T02:47:52;10.70;99.90
22635;DHT22;11484;50.858;4.384;2023-04-24T02:50:18;10.70;99.90
22635;DHT22;11484;50.858;4.384;2023-04-24T02:52:43;10.70;99.90
22635;DHT22;11484;50.858;4.384;2023-04-24T02:55:09;10.70;99.90
22635;DHT22;11484;50.858;4.384;2023-04-24T02:57:35;10.80;99.90
22635;DHT22;11484;50.858;4.384;2023-04-24T03:00:01;10.70;99.90
22635;DHT22;11484;50.858;4.384;2023-04-24T03:02:28;10.70;99.90
22635;DHT22;11484;50.858;4.384;2023-04-24T03:04:55;10.70;99.90
22635;DHT22;11484;50.858;4.384;2023-04-24T03:07:20;10.80;99.90
22635;DHT22;11484;50.858;4.384;2023-04-24T03:09:47;10.50;99.90
22635;DHT22;11484;50.858;4.384;2023-04-24T03:12:13;10.50;99.90
22635;DHT22;11484;50.858;4.384;2023-04-24T03:14:38;10.50;99.90
22635;DHT22;11484;50.858;4.384;2023-04-24T03:17:04;10.50;99.90
22635;DHT22;11484;50.858;4.384;2023-04-24T03:19:30;10.50;99.90
22635;DHT22;11484;50.858;4.384;2023-04-24T03:21:56;10.30;99.90
22635;DHT22;11484;50.858;4.384;2023-04-24T03:24:21;10.30;99.90
22635;DHT22;11484;50.858;4.384;2023-04-24T03:26:47;10.30;99.90
22635;DHT22;11484;50.858;4.384;2023-04-24T03:29:13;10.30;99.90
22635;DHT22;11484;50.858;4.384;2023-04-24T03:31:39;10.40;99.90
22635;DHT22;11484;50.858;4.384;2023-04-24T03:34:04;10.30;99.90
22635;DHT22;11484;50.858;4.384;2023-04-24T03:36:30;10.30;99.90
22635;DHT22;11484;50.858;4.384;2023-04-24T03:38:57;10.20;99.90
22635;DHT22;11484;50.858;4.384;2023-04-24T03:41:22;10.30;99.90
22635;DHT22;11484;50.858;4.384;2023-04-24T03:43:48;10.30;99.90
22635;DHT22;11484;50.858;4.384;2023-04-24T03:46:14;10.30;99.90
22635;DHT22;11484;50.858;4.384;2023-04-24T03:48:40;10.30;99.90
22635;DHT22;11484;50.858;4.384;2023-04-24T03:51:06;10.20;99.90
22635;DHT22;11484;50.858;4.384;2023-04-24T03:53:31;10.20;99.90
22635;DHT22;11484;50.858;4.384;2023-04-24T03:55:57;10.30;99.90
22635;DHT22;11484;50.858;4.384;2023-04-24T03:58:23;10.20;99.90
22635;DHT22;11484;50.858;4.384;2023-04-24T04:00:49;10.30;99.90
22635;DHT22;11484;50.858;4.384;2023-04-24T04:03:15;10.30;99.90
22635;DHT22;11484;50.858;4.384;2023-04-24T04:05:40;10.40;99.90
22635;DHT22;11484;50.858;4.384;2023-04-24T04:08:06;10.40;99.90
22635;DHT22;11484;50.858;4.384;2023-04-24T04:10:32;10.40;99.90
22635;DHT22;11484;50.858;4.384;2023-04-24T04:12:57;10.50;99.90
22635;DHT22;11484;50.858;4.384;2023-04-24T04:15:23;10.50;99.90
22635;DHT22;11484;50.858;4.384;2023-04-24T04:17:49;10.40;99.90
22635;DHT22;11484;50.858;4.384;2023-04-24T04:20:15;10.40;99.90
22635;DHT22;11484;50.858;4.384;2023-04-24T04:22:40;10.50;99.90
22635;DHT22;11484;50.858;4.384;2023-04-24T04:25:06;10.40;99.90
22635;DHT22;11484;50.858;4.384;2023-04-24T04:27:34;10.50;99.90
22635;DHT22;11484;50.858;4.384;2023-04-24T04:30:00;10.50;99.90
22635;DHT22;11484;50.858;4.384;2023-04-24T04:32:33;10.50;99.90
22635;DHT22;11484;50.858;4.384;2023-04-24T04:35:00;10.50;99.90
22635;DHT22;11484;50.858;4.384;2023-04-24T04:37:30;10.40;99.90
22635;DHT22;11484;50.858;4.384;2023-04-24T04:39:57;10.40;99.90
22635;DHT22;11484;50.858;4.384;2023-04-24T04:42:24;10.40;99.90
22635;DHT22;11484;50.858;4.384;2023-04-24T04:44:50;10.40;99.90
22635;DHT22;11484;50.858;4.384;2023-04-24T04:47:16;10.40;99.90
22635;DHT22;11484;50.858;4.384;2023-04-24T04:49:43;10.40;99.90
22635;DHT22;11484;50.858;4.384;2023-04-24T04:52:09;10.40;99.90
22635;DHT22;11484;50.858;4.384;2023-04-24T04:54:35;10.40;99.90
22635;DHT22;11484;50.858;4.384;2023-04-24T04:57:00;10.30;99.90
22635;DHT22;11484;50.858;4.384;2023-04-24T04:59:27;10.30;99.90
22635;DHT22;11484;50.858;4.384;2023-04-24T05:01:53;10.30;99.90
22635;DHT22;11484;50.858;4.384;2023-04-24T05:04:18;10.40;99.90
22635;DHT22;11484;50.858;4.384;2023-04-24T05:06:44;10.40;99.90
22635;DHT22;11484;50.858;4.384;2023-04-24T05:09:11;10.30;99.90
22635;DHT22;11484;50.858;4.384;2023-04-24T05:11:36;10.30;99.90
22635;DHT22;11484;50.858;4.384;2023-04-24T05:14:02;10.40;99.90
22635;DHT22;11484;50.858;4.384;2023-04-24T05:16:28;10.40;99.90
22635;DHT22;11484;50.858;4.384;2023-04-24T05:18:53;10.30;99.90
22635;DHT22;11484;50.858;4.384;2023-04-24T05:21:19;10.30;99.90
22635;DHT22;11484;50.858;4.384;2023-04-24T05:25:50;10.30;99.90
22635;DHT22;11484;50.858;4.384;2023-04-24T05:28:16;10.20;99.90
22635;DHT22;11484;50.858;4.384;2023-04-24T05:30:42;10.10;99.90
22635;DHT22;11484;50.858;4.384;2023-04-24T05:33:08;10.10;99.90
22635;DHT22;11484;50.858;4.384;2023-04-24T05:35:34;10.20;99.90
22635;DHT22;11484;50.858;4.384;2023-04-24T05:38:00;10.20;99.90
22635;DHT22;11484;50.858;4.384;2023-04-24T05:40:25;10.20;99.90
22635;DHT22;11484;50.858;4.384;2023-04-24T05:42:51;10.30;99.90
22635;DHT22;11484;50.858;4.384;2023-04-24T05:45:17;10.30;99.90
22635;DHT22;11484;50.858;4.384;2023-04-24T05:47:43;10.30;99.90
22635;DHT22;11484;50.858;4.384;2023-04-24T05:50:10;10.30;99.90
22635;DHT22;11484;50.858;4.384;2023-04-24T05:52:36;10.30;99.90
22635;DHT22;11484;50.858;4.384;2023-04-24T05:55:01;10.30;99.90
22635;DHT22;11484;50.858;4.384;2023-04-24T05:57:27;10.20;99.90
22635;DHT22;11484;50.858;4.384;2023-04-24T05:59:53;10.20;99.90
22635;DHT22;11484;50.858;4.384;2023-04-24T06:02:18;10.10;99.90
22635;DHT22;11484;50.858;4.384;2023-04-24T06:04:45;10.10;99.90
22635;DHT22;11484;50.858;4.384;2023-04-24T06:07:11;10.10;99.90
22635;DHT22;11484;50.858;4.384;2023-04-24T06:09:37;10.20;99.90
22635;DHT22;11484;50.858;4.384;2023-04-24T06:12:02;10.20;99.90
22635;DHT22;11484;50.858;4.384;2023-04-24T06:14:28;10.20;99.90
22635;DHT22;11484;50.858;4.384;2023-04-24T06:16:54;10.20;99.90
22635;DHT22;11484;50.858;4.384;2023-04-24T06:19:20;10.20;99.90
22635;DHT22;11484;50.858;4.384;2023-04-24T06:21:46;10.20;99.90
22635;DHT22;11484;50.858;4.384;2023-04-24T06:24:14;10.30;99.90
22635;DHT22;11484;50.858;4.384;2023-04-24T06:26:39;10.20;99.90
22635;DHT22;11484;50.858;4.384;2023-04-24T06:29:06;10.20;99.90
22635;DHT22;11484;50.858;4.384;2023-04-24T06:31:32;10.30;99.90
22635;DHT22;11484;50.858;4.384;2023-04-24T06:34:03;10.20;99.90
22635;DHT22;11484;50.858;4.384;2023-04-24T06:36:28;10.30;99.90
22635;DHT22;11484;50.858;4.384;2023-04-24T06:38:54;10.30;99.90
22635;DHT22;11484;50.858;4.384;2023-04-24T06:41:20;10.20;99.90
22635;DHT22;11484;50.858;4.384;2023-04-24T06:43:46;10.20;99.90
22635;DHT22;11484;50.858;4.384;2023-04-24T06:46:11;10.30;99.90
22635;DHT22;11484;50.858;4.384;2023-04-24T06:48:39;10.30;99.90
22635;DHT22;11484;50.858;4.384;2023-04-24T06:51:05;10.30;99.90
22635;DHT22;11484;50.858;4.384;2023-04-24T06:53:30;10.20;99.90
22635;DHT22;11484;50.858;4.384;2023-04-24T06:55:56;10.30;99.90
22635;DHT22;11484;50.858;4.384;2023-04-24T06:58:22;10.30;99.90
22635;DHT22;11484;50.858;4.384;2023-04-24T07:00:47;10.30;99.90
22635;DHT22;11484;50.858;4.384;2023-04-24T07:03:13;10.40;99.90
22635;DHT22;11484;50.858;4.384;2023-04-24T07:05:39;10.40;99.90
22635;DHT22;11484;50.858;4.384;2023-04-24T07:08:05;10.40;99.90
22635;DHT22;11484;50.858;4.384;2023-04-24T07:10:32;10.50;99.90
22635;DHT22;11484;50.858;4.384;2023-04-24T07:13:01;10.50;99.90
22635;DHT22;11484;50.858;4.384;2023-04-24T07:15:26;10.50;99.90
22635;DHT22;11484;50.858;4.384;2023-04-24T07:17:52;10.60;99.90
22635;DHT22;11484;50.858;4.384;2023-04-24T07:20:18;10.60;99.90
22635;DHT22;11484;50.858;4.384;2023-04-24T07:22:44;10.70;99.90
22635;DHT22;11484;50.858;4.384;2023-04-24T07:25:10;10.90;99.90
22635;DHT22;11484;50.858;4.384;2023-04-24T07:27:35;11.20;99.90
22635;DHT22;11484;50.858;4.384;2023-04-24T07:30:04;11.40;99.90
22635;DHT22;11484;50.858;4.384;2023-04-24T07:32:30;11.40;99.90
22635;DHT22;11484;50.858;4.384;2023-04-24T07:34:56;11.30;99.90
22635;DHT22;11484;50.858;4.384;2023-04-24T07:37:22;11.30;99.90
22635;DHT22;11484;50.858;4.384;2023-04-24T07:39:48;11.30;99.90
22635;DHT22;11484;50.858;4.384;2023-04-24T07:42:14;11.40;99.90
22635;DHT22;11484;50.858;4.384;2023-04-24T07:44:40;11.90;99.90
22635;DHT22;11484;50.858;4.384;2023-04-24T07:47:05;12.10;99.90
22635;DHT22;11484;50.858;4.384;2023-04-24T07:49:37;12.10;99.90
22635;DHT22;11484;50.858;4.384;2023-04-24T07:52:03;11.90;99.90
22635;DHT22;11484;50.858;4.384;2023-04-24T07:54:29;11.70;99.90
22635;DHT22;11484;50.858;4.384;2023-04-24T07:56:55;11.60;99.90
22635;DHT22;11484;50.858;4.384;2023-04-24T07:59:20;11.60;99.90
22635;DHT22;11484;50.858;4.384;2023-04-24T08:01:46;11.70;99.90
22635;DHT22;11484;50.858;4.384;2023-04-24T08:04:12;11.80;99.90
22635;DHT22;11484;50.858;4.384;2023-04-24T08:06:38;12.00;99.90
22635;DHT22;11484;50.858;4.384;2023-04-24T08:09:04;12.20;99.90
22635;DHT22;11484;50.858;4.384;2023-04-24T08:11:30;12.20;99.90
22635;DHT22;11484;50.858;4.384;2023-04-24T08:13:56;12.00;99.90
22635;DHT22;11484;50.858;4.384;2023-04-24T08:16:22;11.90;99.90
22635;DHT22;11484;50.858;4.384;2023-04-24T08:18:49;11.80;99.90
22635;DHT22;11484;50.858;4.384;2023-04-24T08:21:15;11.80;99.90
22635;DHT22;11484;50.858;4.384;2023-04-24T08:23:47;11.80;99.90
22635;DHT22;11484;50.858;4.384;2023-04-24T08:26:13;11.80;99.90
22635;DHT22;11484;50.858;4.384;2023-04-24T08:28:38;12.20;99.90
22635;DHT22;11484;50.858;4.384;2023-04-24T08:31:04;12.40;99.90
22635;DHT22;11484;50.858;4.384;2023-04-24T08:33:30;12.50;99.90
22635;DHT22;11484;50.858;4.384;2023-04-24T08:36:04;12.40;99.90
22635;DHT22;11484;50.858;4.384;2023-04-24T08:38:30;12.40;99.90
22635;DHT22;11484;50.858;4.384;2023-04-24T08:41:00;12.50;99.90
22635;DHT22;11484;50.858;4.384;2023-04-24T08:43:27;12.50;99.90
22635;DHT22;11484;50.858;4.384;2023-04-24T08:45:56;12.60;99.90
22635;DHT22;11484;50.858;4.384;2023-04-24T08:48:22;12.70;99.90
22635;DHT22;11484;50.858;4.384;2023-04-24T08:50:51;13.40;99.90
22635;DHT22;11484;50.858;4.384;2023-04-24T08:53:18;14.20;99.90
22635;DHT22;11484;50.858;4.384;2023-04-24T08:55:47;15.20;99.90
22635;DHT22;11484;50.858;4.384;2023-04-24T08:58:14;16.00;99.90
22635;DHT22;11484;50.858;4.384;2023-04-24T09:00:40;16.20;99.90
22635;DHT22;11484;50.858;4.384;2023-04-24T09:03:15;16.50;99.90
22635;DHT22;11484;50.858;4.384;2023-04-24T09:05:43;16.50;99.90
22635;DHT22;11484;50.858;4.384;2023-04-24T09:08:13;16.10;99.90
22635;DHT22;11484;50.858;4.384;2023-04-24T09:10:40;15.70;99.90
22635;DHT22;11484;50.858;4.384;2023-04-24T09:13:07;15.50;99.90
22635;DHT22;11484;50.858;4.384;2023-04-24T09:15:37;16.10;99.90
22635;DHT22;11484;50.858;4.384;2023-04-24T09:18:04;16.50;99.90
22635;DHT22;11484;50.858;4.384;2023-04-24T09:20:31;16.10;99.90
22635;DHT22;11484;50.858;4.384;2023-04-24T09:22:57;16.20;99.90
22635;DHT22;11484;50.858;4.384;2023-04-24T09:25:34;16.80;99.90
22635;DHT22;11484;50.858;4.384;2023-04-24T09:28:03;16.70;99.90
22635;DHT22;11484;50.858;4.384;2023-04-24T09:30:29;15.90;99.90
22635;DHT22;11484;50.858;4.384;2023-04-24T09:33:14;15.20;99.90
22635;DHT22;11484;50.858;4.384;2023-04-24T09:35:51;14.70;99.90
22635;DHT22;11484;50.858;4.384;2023-04-24T09:38:17;14.20;99.90
22635;DHT22;11484;50.858;4.384;2023-04-24T09:40:43;14.20;99.90
22635;DHT22;11484;50.858;4.384;2023-04-24T09:43:11;14.20;99.90
22635;DHT22;11484;50.858;4.384;2023-04-24T09:45:39;14.00;99.90
22635;DHT22;11484;50.858;4.384;2023-04-24T09:48:05;14.30;99.90
22635;DHT22;11484;50.858;4.384;2023-04-24T09:50:34;15.30;99.90
22635;DHT22;11484;50.858;4.384;2023-04-24T09:53:05;15.70;99.90
22635;DHT22;11484;50.858;4.384;2023-04-24T09:55:31;15.60;99.90
22635;DHT22;11484;50.858;4.384;2023-04-24T09:58:01;15.30;99.90
22635;DHT22;11484;50.858;4.384;2023-04-24T10:00:31;15.00;99.90
22635;DHT22;11484;50.858;4.384;2023-04-24T10:03:01;14.80;99.90
22635;DHT22;11484;50.858;4.384;2023-04-24T10:05:31;15.00;99.90
22635;DHT22;11484;50.858;4.384;2023-04-24T10:08:08;15.10;99.90
22635;DHT22;11484;50.858;4.384;2023-04-24T10:10:45;15.10;99.90
22635;DHT22;11484;50.858;4.384;2023-04-24T10:13:12;15.50;99.90
22635;DHT22;11484;50.858;4.384;2023-04-24T10:15:40;15.60;99.90
22635;DHT22;11484;50.858;4.384;2023-04-24T10:18:06;15.40;99.90
22635;DHT22;11484;50.858;4.384;2023-04-24T10:20:33;15.20;99.90
22635;DHT22;11484;50.858;4.384;2023-04-24T10:22:59;15.00;99.90
22635;DHT22;11484;50.858;4.384;2023-04-24T10:25:27;14.70;99.90
22635;DHT22;11484;50.858;4.384;2023-04-24T10:27:54;14.40;99.90
22635;DHT22;11484;50.858;4.384;2023-04-24T10:30:43;14.00;99.90
22635;DHT22;11484;50.858;4.384;2023-04-24T10:33:09;14.00;99.90
22635;DHT22;11484;50.858;4.384;2023-04-24T10:35:40;14.20;99.90
22635;DHT22;11484;50.858;4.384;2023-04-24T10:38:11;14.70;99.90
22635;DHT22;11484;50.858;4.384;2023-04-24T10:40:37;15.10;99.90
22635;DHT22;11484;50.858;4.384;2023-04-24T10:43:07;15.10;99.90
22635;DHT22;11484;50.858;4.384;2023-04-24T10:45:35;15.20;99.90
22635;DHT22;11484;50.858;4.384;2023-04-24T10:48:05;15.30;99.90
22635;DHT22;11484;50.858;4.384;2023-04-24T10:50:46;15.20;99.90
22635;DHT22;11484;50.858;4.384;2023-04-24T10:53:15;15.10;99.90
22635;DHT22;11484;50.858;4.384;2023-04-24T10:55:50;14.80;99.90
22635;DHT22;11484;50.858;4.384;2023-04-24T10:58:24;14.60;99.90
22635;DHT22;11484;50.858;4.384;2023-04-24T11:01:07;14.40;99.90
22635;DHT22;11484;50.858;4.384;2023-04-24T11:03:34;14.30;99.90
22635;DHT22;11484;50.858;4.384;2023-04-24T11:06:03;14.40;99.90
22635;DHT22;11484;50.858;4.384;2023-04-24T11:08:32;14.40;99.90
22635;DHT22;11484;50.858;4.384;2023-04-24T11:11:14;14.50;99.90
22635;DHT22;11484;50.858;4.384;2023-04-24T11:16:28;14.50;99.90
22635;DHT22;11484;50.858;4.384;2023-04-24T11:19:06;14.40;99.90
22635;DHT22;11484;50.858;4.384;2023-04-24T11:22:14;14.50;99.90
22635;DHT22;11484;50.858;4.384;2023-04-24T11:32:30;15.00;99.90
22635;DHT22;11484;50.858;4.384;2023-04-24T11:34:57;15.00;99.90
22635;DHT22;11484;50.858;4.384;2023-04-24T11:37:26;14.90;99.90
22635;DHT22;11484;50.858;4.384;2023-04-24T11:39:57;14.90;99.90
22635;DHT22;11484;50.858;4.384;2023-04-24T11:42:23;15.00;99.90
22635;DHT22;11484;50.858;4.384;2023-04-24T11:44:53;15.10;99.90
22635;DHT22;11484;50.858;4.384;2023-04-24T11:47:19;15.20;99.90
22635;DHT22;11484;50.858;4.384;2023-04-24T11:49:46;15.30;99.90
22635;DHT22;11484;50.858;4.384;2023-04-24T11:52:15;15.40;99.90
22635;DHT22;11484;50.858;4.384;2023-04-24T11:54:47;15.40;99.90
22635;DHT22;11484;50.858;4.384;2023-04-24T11:57:14;15.20;99.90
22635;DHT22;11484;50.858;4.384;2023-04-24T11:59:39;15.20;99.90
22635;DHT22;11484;50.858;4.384;2023-04-24T12:02:05;15.20;99.90
22635;DHT22;11484;50.858;4.384;2023-04-24T12:04:41;15.40;99.90
22635;DHT22;11484;50.858;4.384;2023-04-24T12:07:07;15.40;99.90
22635;DHT22;11484;50.858;4.384;2023-04-24T12:09:43;15.40;99.90
22635;DHT22;11484;50.858;4.384;2023-04-24T12:12:10;15.40;99.90
22635;DHT22;11484;50.858;4.384;2023-04-24T12:15:06;15.20;99.90
22635;DHT22;11484;50.858;4.384;2023-04-24T12:17:33;15.40;99.90
22635;DHT22;11484;50.858;4.384;2023-04-24T12:20:07;15.50;99.90
22635;DHT22;11484;50.858;4.384;2023-04-24T12:22:52;15.30;99.60
22635;DHT22;11484;50.858;4.384;2023-04-24T12:25:26;15.10;99.90
22635;DHT22;11484;50.858;4.384;2023-04-24T12:28:09;14.90;99.90
22635;DHT22;11484;50.858;4.384;2023-04-24T12:30:42;14.80;99.90
22635;DHT22;11484;50.858;4.384;2023-04-24T12:33:10;14.70;99.80
22635;DHT22;11484;50.858;4.384;2023-04-24T12:35:36;14.50;99.90
22635;DHT22;11484;50.858;4.384;2023-04-24T12:38:12;14.50;99.90
22635;DHT22;11484;50.858;4.384;2023-04-24T12:40:39;14.40;99.90
22635;DHT22;11484;50.858;4.384;2023-04-24T12:43:19;14.50;99.90
22635;DHT22;11484;50.858;4.384;2023-04-24T12:45:47;14.40;99.90
22635;DHT22;11484;50.858;4.384;2023-04-24T12:48:13;14.40;99.90
22635;DHT22;11484;50.858;4.384;2023-04-24T12:50:43;14.40;99.90
22635;DHT22;11484;50.858;4.384;2023-04-24T12:53:09;14.40;99.90
22635;DHT22;11484;50.858;4.384;2023-04-24T12:55:35;14.40;99.90
22635;DHT22;11484;50.858;4.384;2023-04-24T12:58:01;14.40;99.90
22635;DHT22;11484;50.858;4.384;2023-04-24T13:00:28;14.50;99.90
22635;DHT22;11484;50.858;4.384;2023-04-24T13:02:54;14.70;99.90
22635;DHT22;11484;50.858;4.384;2023-04-24T13:05:20;14.90;99.90
22635;DHT22;11484;50.858;4.384;2023-04-24T13:07:46;15.10;99.90
22635;DHT22;11484;50.858;4.384;2023-04-24T13:10:11;15.30;99.60
22635;DHT22;11484;50.858;4.384;2023-04-24T13:12:38;15.40;99.50
22635;DHT22;11484;50.858;4.384;2023-04-24T13:15:05;15.30;99.50
22635;DHT22;11484;50.858;4.384;2023-04-24T13:17:31;15.30;99.30
22635;DHT22;11484;50.858;4.384;2023-04-24T13:19:56;15.20;98.80
22635;DHT22;11484;50.858;4.384;2023-04-24T13:22:22;15.00;98.90
22635;DHT22;11484;50.858;4.384;2023-04-24T13:24:48;14.90;99.60
22635;DHT22;11484;50.858;4.384;2023-04-24T13:27:17;14.80;99.20
22635;DHT22;11484;50.858;4.384;2023-04-24T13:29:42;14.70;98.90
22635;DHT22;11484;50.858;4.384;2023-04-24T13:32:09;14.60;99.20
22635;DHT22;11484;50.858;4.384;2023-04-24T13:34:35;14.60;99.50
22635;DHT22;11484;50.858;4.384;2023-04-24T13:37:02;14.70;99.90
22635;DHT22;11484;50.858;4.384;2023-04-24T13:39:29;14.70;99.70
22635;DHT22;11484;50.858;4.384;2023-04-24T13:41:55;14.80;99.50
22635;DHT22;11484;50.858;4.384;2023-04-24T13:44:22;15.00;99.20
22635;DHT22;11484;50.858;4.384;2023-04-24T13:46:51;15.00;98.60
22635;DHT22;11484;50.858;4.384;2023-04-24T13:49:18;15.00;97.90
22635;DHT22;11484;50.858;4.384;2023-04-24T13:51:44;15.00;98.00
22635;DHT22;11484;50.858;4.384;2023-04-24T13:54:11;15.00;97.50
22635;DHT22;11484;50.858;4.384;2023-04-24T13:56:37;15.00;97.20
22635;DHT22;11484;50.858;4.384;2023-04-24T13:59:02;15.10;97.70
22635;DHT22;11484;50.858;4.384;2023-04-24T14:01:28;15.20;98.00
22635;DHT22;11484;50.858;4.384;2023-04-24T14:03:55;15.20;97.30
22635;DHT22;11484;50.858;4.384;2023-04-24T14:06:21;15.40;96.80
22635;DHT22;11484;50.858;4.384;2023-04-24T14:08:49;15.60;96.60
22635;DHT22;11484;50.858;4.384;2023-04-24T14:11:15;15.60;96.30
22635;DHT22;11484;50.858;4.384;2023-04-24T14:13:42;15.60;95.70
22635;DHT22;11484;50.858;4.384;2023-04-24T14:16:08;15.60;95.10
22635;DHT22;11484;50.858;4.384;2023-04-24T14:18:34;15.60;95.30
22635;DHT22;11484;50.858;4.384;2023-04-24T14:21:00;15.50;94.60
22635;DHT22;11484;50.858;4.384;2023-04-24T14:23:27;15.50;94.60
22635;DHT22;11484;50.858;4.384;2023-04-24T14:25:53;15.40;94.80
22635;DHT22;11484;50.858;4.384;2023-04-24T14:28:19;15.40;95.30
22635;DHT22;11484;50.858;4.384;2023-04-24T14:30:46;15.50;96.00
22635;DHT22;11484;50.858;4.384;2023-04-24T14:33:12;15.30;95.90
22635;DHT22;11484;50.858;4.384;2023-04-24T14:35:39;15.20;96.50
22635;DHT22;11484;50.858;4.384;2023-04-24T14:38:05;15.00;96.60
22635;DHT22;11484;50.858;4.384;2023-04-24T14:40:31;15.00;96.60
22635;DHT22;11484;50.858;4.384;2023-04-24T14:42:58;14.90;96.80
22635;DHT22;11484;50.858;4.384;2023-04-24T14:45:27;14.90;97.00
22635;DHT22;11484;50.858;4.384;2023-04-24T14:47:53;14.90;97.10
22635;DHT22;11484;50.858;4.384;2023-04-24T14:50:19;14.90;97.30
22635;DHT22;11484;50.858;4.384;2023-04-24T14:52:45;14.90;96.70
22635;DHT22;11484;50.858;4.384;2023-04-24T14:55:11;14.80;96.80
22635;DHT22;11484;50.858;4.384;2023-04-24T14:57:37;14.80;96.60
22635;DHT22;11484;50.858;4.384;2023-04-24T15:00:05;14.80;96.70
22635;DHT22;11484;50.858;4.384;2023-04-24T15:02:33;14.80;96.60
22635;DHT22;11484;50.858;4.384;2023-04-24T15:04:58;14.70;96.30
22635;DHT22;11484;50.858;4.384;2023-04-24T15:07:24;14.80;96.50
22635;DHT22;11484;50.858;4.384;2023-04-24T15:09:50;14.80;96.20
22635;DHT22;11484;50.858;4.384;2023-04-24T15:12:16;14.90;96.60
22635;DHT22;11484;50.858;4.384;2023-04-24T15:14:42;15.00;96.30
22635;DHT22;11484;50.858;4.384;2023-04-24T15:17:08;15.10;95.70
22635;DHT22;11484;50.858;4.384;2023-04-24T15:19:33;15.10;95.70
22635;DHT22;11484;50.858;4.384;2023-04-24T15:21:59;14.90;94.80
22635;DHT22;11484;50.858;4.384;2023-04-24T15:24:25;14.90;94.10
22635;DHT22;11484;50.858;4.384;2023-04-24T15:26:50;14.90;94.20
22635;DHT22;11484;50.858;4.384;2023-04-24T15:29:16;14.90;94.80
22635;DHT22;11484;50.858;4.384;2023-04-24T15:31:42;14.90;94.80
22635;DHT22;11484;50.858;4.384;2023-04-24T15:34:07;14.80;95.40
22635;DHT22;11484;50.858;4.384;2023-04-24T15:36:34;14.90;95.70
22635;DHT22;11484;50.858;4.384;2023-04-24T15:39:01;14.90;95.60
22635;DHT22;11484;50.858;4.384;2023-04-24T15:41:28;15.00;95.60
22635;DHT22;11484;50.858;4.384;2023-04-24T15:43:53;14.90;95.50